CYVT

Buffalo Narrows Airport

Buffalo Narrows, Saskatchewan, Canada
METAR CYVT 212152Z 25004KT 15SM -RA FEW050 BKN070 BKN100 BKN160 BKN250 25/15 A2984 RMK CU1AC4AC2AC1CI1 AC TR CI TR CIG RAG SLP107 DENSITY ALT 3000FT
Observed Flight Rules
Jun-21 @ 21:52 UTC (11 minutes ago) Visual Flight Rules
Wind Visibility Clouds Conditions
250° at 4 knots 15 miles
  • Few at 5,000' AGL
  • Broken at 7,000' AGL
  • Broken at 10,000' AGL
  • Broken at 16,000' AGL
  • Light Rain
Temperatures Readings
Current 25°C / 77°F
Dewpoint 15°C / 59°F
Humidity 54%
Altimeter 29.84" Hg
Pressure 1010.7 hPa
Elevation 434
METAR CYVT 212152Z 25004KT 15SM -RA FEW050 BKN070 BKN100 BKN160 BKN250 25/15 A2984 RMK CU1AC4AC2AC1CI1 AC TR CI TR CIG RAG SLP107 DENSITY ALT 3000FT
Observed Flight Rules
Jun-21 @ 21:52 UTC
(11 minutes ago)
VFR
Wind Visibility
250° at 4 knots 15 miles
Clouds
  • Few at 5,000' AGL
  • Broken at 7,000' AGL
  • Broken at 10,000' AGL
  • Broken at 16,000' AGL
Conditions
  • Light Rain
Temperature Dewpoint
25°C / 77°F 15°C / 59°F
Humidity Altimeter Pressure
54% 29.84" Hg 1010.7 hPa